Time;durP1;ratioP1;P1;durP2;ratioP2;P2;SDS_P1;SDS_P2;PMS_P1;PMS_P2;Temp;Humidity;BMP_temperature;BMP_pressure;BME280_temperature;BME280_humidity;BME280_pressure;Samples;Min_cycle;Max_cycle;Signal;HPM_P1;HPM_P2
2021/05/02 19:55:00;;;;;;;;;2.20;2.20;;;;;19.02;20.79;99432.84;5049174;28;13517;-50
2021/05/02 19:57:26;;;;;;;;;2.50;2.50;;;;;19.16;20.59;99432.63;4983547;28;12367;-52
2021/05/02 19:59:51;;;;;;;;;2.00;2.00;;;;;19.20;20.13;99430.81;5008878;28;8840;-48
2021/05/02 20:02:17;;;;;;;;;3.00;3.00;;;;;19.24;20.29;99423.56;5007394;28;8834;-49
2021/05/02 20:04:42;;;;;;;;;3.00;3.00;;;;;18.55;21.58;99435.59;5014418;28;8766;-50
2021/05/02 20:07:08;;;;;;;;;2.00;2.00;;;;;17.75;22.19;99436.81;5011257;28;8866;-50
2021/05/02 20:09:33;;;;;;;;;2.75;2.75;;;;;17.54;21.94;99430.38;4995343;28;8830;-50
2021/05/02 20:12:00;;;;;;;;;3.00;3.00;;;;;17.48;21.72;99429.72;4985814;28;9593;-51
2021/05/02 20:14:26;;;;;;;;;2.80;2.80;;;;;17.44;21.42;99436.94;5004828;28;8780;-51
2021/05/02 20:16:51;;;;;;;;;2.60;2.60;;;;;17.40;21.17;99431.31;5007616;28;8927;-50
2021/05/02 20:19:17;;;;;;;;;2.75;2.75;;;;;17.37;21.19;99426.50;4993648;28;8818;-50
2021/05/02 20:21:43;;;;;;;;;2.00;2.00;;;;;17.34;20.92;99435.34;4991180;28;8799;-50
2021/05/02 20:24:08;;;;;;;;;2.00;2.00;;;;;17.34;20.96;99431.78;4992238;28;8779;-50
2021/05/02 20:26:34;;;;;;;;;2.00;2.00;;;;;17.36;20.71;99433.09;4998995;28;8815;-51
2021/05/02 20:29:00;;;;;;;;;2.00;2.00;;;;;17.35;20.59;99434.19;4999600;28;8767;-50
2021/05/02 20:31:26;;;;;;;;;2.00;2.00;;;;;17.37;20.68;99431.94;4987690;28;8798;-50
2021/05/02 20:33:53;;;;;;;;;2.00;2.00;;;;;17.39;20.45;99435.16;4994117;28;8833;-51
2021/05/02 20:36:28;;;;;;;;;2.60;2.60;;;;;17.41;20.31;99427.47;5004260;28;10997;-50
2021/05/02 20:38:57;;;;;;;;;2.00;2.00;;;;;17.40;20.23;99433.25;5013327;28;8775;-50
2021/05/02 20:41:23;;;;;;;;;3.00;3.00;;;;;17.39;20.16;99432.44;5011244;28;8827;-50
2021/05/02 20:43:49;;;;;;;;;3.00;2.00;;;;;17.42;20.03;99428.28;5006979;28;8784;-51
2021/05/02 20:46:15;;;;;;;;;2.00;2.00;;;;;17.42;20.03;99434.53;5013751;28;8917;-50
2021/05/02 20:48:40;;;;;;;;;2.00;2.00;;;;;17.44;20.07;99430.69;5002760;28;8984;-50
2021/05/02 20:51:06;;;;;;;;;2.00;2.00;;;;;17.45;19.83;99427.66;4989758;28;8968;-50
2021/05/02 20:53:31;;;;;;;;;2.00;2.00;;;;;17.46;19.71;99431.16;4990455;28;8944;-51
2021/05/02 20:55:56;;;;;;;;;2.00;2.00;;;;;17.45;19.70;99433.09;4993630;28;8809;-51
2021/05/02 20:58:22;;;;;;;;;2.00;2.00;;;;;17.48;19.71;99431.63;4993741;28;8791;-50
2021/05/02 21:00:47;;;;;;;;;1.75;1.75;;;;;17.47;19.43;99424.59;4971417;28;8819;-50
2021/05/02 21:03:13;;;;;;;;;2.50;2.00;;;;;17.50;19.45;99432.13;4989619;28;8938;-50
2021/05/02 21:05:38;;;;;;;;;2.00;2.00;;;;;17.51;19.46;99425.56;4985074;28;8918;-50
2021/05/02 21:08:04;;;;;;;;;2.00;2.00;;;;;17.49;19.41;99428.59;4975716;28;10486;-50
2021/05/02 21:10:29;;;;;;;;;2.50;2.50;;;;;17.52;19.33;99427.16;4960310;28;11537;-50
2021/05/02 21:12:54;;;;;;;;;2.00;2.00;;;;;17.52;19.30;99424.41;4974025;28;8854;-50
2021/05/02 21:15:20;;;;;;;;;2.00;2.00;;;;;17.55;19.18;99429.25;4980446;28;8816;-51
2021/05/02 21:17:45;;;;;;;;;2.00;2.00;;;;;17.55;19.16;99429.25;4978279;28;8800;-50
2021/05/02 21:20:11;;;;;;;;;2.00;2.00;;;;;17.56;19.06;99423.47;4974034;28;8769;-50
2021/05/02 21:22:38;;;;;;;;;2.00;2.00;;;;;17.56;18.86;99430.84;4961586;28;8795;-50
2021/05/02 21:25:05;;;;;;;;;2.00;2.00;;;;;17.56;19.03;99433.59;4979070;28;10770;-51
2021/05/02 21:27:31;;;;;;;;;2.00;2.00;;;;;17.56;19.00;99428.13;4959488;28;8793;-51
2021/05/02 21:29:56;;;;;;;;;1.00;1.00;;;;;17.56;18.79;99426.19;4972026;28;8811;-50
2021/05/02 21:32:22;;;;;;;;;2.00;2.00;;;;;17.58;18.83;99425.88;4977109;28;8884;-51
2021/05/02 21:34:48;;;;;;;;;2.25;2.00;;;;;17.56;18.75;99420.75;4978046;28;8776;-50
2021/05/02 21:37:15;;;;;;;;;2.00;2.00;;;;;17.59;18.76;99427.50;4978006;28;8803;-49
2021/05/02 21:39:40;;;;;;;;;1.80;1.80;;;;;17.60;18.69;99426.34;4972615;28;9372;-51
2021/05/02 21:42:05;;;;;;;;;2.00;2.00;;;;;17.60;18.57;99418.19;4980810;28;8806;-51
2021/05/02 21:44:31;;;;;;;;;1.50;1.50;;;;;17.61;18.53;99419.78;4977720;28;8869;-51
2021/05/02 21:46:56;;;;;;;;;2.00;2.00;;;;;17.63;18.67;99422.19;4977665;28;8819;-49
2021/05/02 21:49:22;;;;;;;;;2.00;2.00;;;;;17.64;18.74;99421.84;4976939;28;9637;-48
2021/05/02 21:51:50;;;;;;;;;2.00;2.00;;;;;17.65;18.59;99415.28;4977672;28;8812;-51
2021/05/02 21:54:16;;;;;;;;;2.00;2.00;;;;;17.66;18.62;99411.47;4970995;28;8825;-50
2021/05/02 21:56:41;;;;;;;;;2.00;2.00;;;;;17.64;18.61;99410.16;4977129;28;8789;-51
2021/05/02 21:59:06;;;;;;;;;2.00;2.00;;;;;17.66;18.54;99416.91;4981123;28;8817;-51
2021/05/02 22:01:32;;;;;;;;;2.00;2.00;;;;;17.67;18.52;99402.13;4975677;28;8837;-51
2021/05/02 22:03:57;;;;;;;;;2.00;2.00;;;;;17.67;18.69;99404.06;4958189;28;8940;-51
2021/05/02 22:06:22;;;;;;;;;2.00;2.00;;;;;17.68;18.41;99395.56;4969074;28;8803;-51
2021/05/02 22:08:48;;;;;;;;;2.00;2.00;;;;;17.69;18.46;99405.34;4969207;28;8797;-51
2021/05/02 22:11:15;;;;;;;;;2.00;2.00;;;;;17.71;18.38;99405.84;4965670;28;8842;-51
2021/05/02 22:13:42;;;;;;;;;3.00;2.60;;;;;17.71;18.24;99396.84;4981263;28;10274;-51
2021/05/02 22:16:08;;;;;;;;;2.00;2.00;;;;;17.72;18.18;99401.97;4979324;28;8791;-51
2021/05/02 22:18:34;;;;;;;;;1.40;1.40;;;;;17.74;18.21;99401.66;4979100;28;8818;-51
2021/05/02 22:21:05;;;;;;;;;2.00;2.00;;;;;17.74;18.20;99404.38;4977369;28;8767;-51
2021/05/02 22:23:33;;;;;;;;;2.00;2.00;;;;;17.76;18.21;99402.94;4981079;28;8820;-51
2021/05/02 22:25:58;;;;;;;;;2.00;2.00;;;;;17.77;18.00;99401.03;4971891;28;9517;-51
2021/05/02 22:28:24;;;;;;;;;1.40;1.40;;;;;17.78;18.13;99400.69;4951443;28;8825;-51
2021/05/02 22:30:49;;;;;;;;;2.75;2.50;;;;;17.78;18.19;99397.97;4976980;28;8896;-51
2021/05/02 22:33:15;;;;;;;;;2.00;2.00;;;;;17.79;18.28;99402.28;4962210;28;8837;-48
2021/05/02 22:35:40;;;;;;;;;2.00;2.00;;;;;17.81;18.17;99401.19;4968615;28;8901;-49
2021/05/02 22:38:06;;;;;;;;;2.00;2.00;;;;;17.83;18.12;99393.47;4975026;28;8821;-49
2021/05/02 22:40:33;;;;;;;;;2.00;2.00;;;;;17.84;18.01;99400.53;4972819;28;8810;-48
2021/05/02 22:42:59;;;;;;;;;2.00;2.00;;;;;17.84;17.79;99395.88;4974967;28;8789;-48
2021/05/02 22:45:24;;;;;;;;;2.00;2.00;;;;;17.86;17.90;99399.09;4980039;28;8837;-49
2021/05/02 22:47:56;;;;;;;;;3.00;3.00;;;;;17.85;17.88;99389.28;4976550;28;11490;-49
2021/05/02 22:50:22;;;;;;;;;2.00;2.00;;;;;17.87;17.74;99394.44;4978285;28;8781;-48
2021/05/02 22:52:47;;;;;;;;;2.00;2.00;;;;;17.87;18.05;99386.25;4974952;28;8792;-48
2021/05/02 22:55:12;;;;;;;;;2.00;2.00;;;;;17.86;17.95;99390.94;4961864;28;8814;-48
2021/05/02 22:57:38;;;;;;;;;2.00;2.00;;;;;17.87;17.75;99392.53;4956252;28;9710;-48
2021/05/02 23:00:06;;;;;;;;;2.00;2.00;;;;;17.87;17.83;99383.53;4972250;28;8791;-48
2021/05/02 23:02:31;;;;;;;;;2.00;2.00;;;;;17.91;17.71;99390.75;4972598;28;9600;-48
2021/05/02 23:04:57;;;;;;;;;2.00;2.00;;;;;17.91;17.67;99387.25;4973696;28;8786;-49
2021/05/02 23:07:22;;;;;;;;;2.00;2.00;;;;;17.94;17.75;99392.03;4976882;28;8802;-48
2021/05/02 23:09:54;;;;;;;;;2.00;2.00;;;;;17.92;17.72;99381.47;4979708;28;8814;-48
2021/05/02 23:12:20;;;;;;;;;2.00;2.00;;;;;17.96;17.41;99387.06;4975867;28;8915;-48
2021/05/02 23:14:45;;;;;;;;;1.25;1.25;;;;;17.97;17.47;99383.19;4961492;28;8812;-49
2021/05/02 23:17:10;;;;;;;;;2.50;2.00;;;;;17.95;17.88;99377.28;4960718;28;8774;-48
2021/05/02 23:19:36;;;;;;;;;2.00;2.00;;;;;17.98;17.56;99384.81;4959873;28;8832;-49
2021/05/02 23:22:01;;;;;;;;;2.00;2.00;;;;;18.00;17.56;99388.03;4960243;28;8816;-48
2021/05/02 23:24:26;;;;;;;;;1.75;1.75;;;;;17.98;17.45;99388.34;4955053;28;8836;-48
2021/05/02 23:26:53;;;;;;;;;2.75;2.00;;;;;18.04;17.33;99388.16;4971004;28;8809;-48
2021/05/02 23:29:19;;;;;;;;;2.00;2.00;;;;;18.26;17.58;99384.44;4975471;28;8909;-48
2021/05/02 23:31:46;;;;;;;;;2.60;2.60;;;;;18.39;18.24;99377.97;4969733;28;8793;-48
2021/05/02 23:34:11;;;;;;;;;2.00;2.00;;;;;18.47;19.12;99379.88;4975136;28;8833;-48
2021/05/02 23:36:36;;;;;;;;;1.50;1.50;;;;;18.43;20.03;99375.38;4976592;28;8825;-48
2021/05/02 23:39:09;;;;;;;;;1.25;1.25;;;;;18.39;20.43;99377.97;4972379;28;8794;-49
2021/05/02 23:41:34;;;;;;;;;3.00;3.00;;;;;18.37;20.76;99380.22;4965987;28;8857;-48
2021/05/02 23:44:00;;;;;;;;;2.00;2.00;;;;;18.29;21.39;99379.13;4961193;28;8913;-48
2021/05/02 23:46:25;;;;;;;;;2.25;2.25;;;;;18.24;21.55;99375.75;4967833;28;8809;-48
2021/05/02 23:48:50;;;;;;;;;3.00;2.75;;;;;18.16;21.86;99383.63;4980585;28;8803;-48
2021/05/02 23:51:16;;;;;;;;;2.00;2.00;;;;;18.11;21.85;99374.84;4977613;28;8803;-49
2021/05/02 23:53:41;;;;;;;;;2.00;2.00;;;;;18.06;22.00;99370.34;4974927;28;8837;-48
2021/05/02 23:56:06;;;;;;;;;2.00;2.00;;;;;18.09;21.26;99369.69;4973393;28;8791;-48
2021/05/02 23:58:32;;;;;;;;;2.00;2.00;;;;;18.15;20.45;99375.78;4969550;28;8853;-48
